»·PEaware :: N2914F KRNM-KTRM

N2914F :: KRNM-KTRM

FLIGHT INFORMATION

Flight Status: Arrived
Operator: Privately registered:
United States
More flights under this callsign
Pilot: Nehseem A. (13724)
Aircraft: BEECH AIRCRAFT BONANZA
(BE36)
More flights by this aircraft type
Origin: KRNM Ramona
United States
Destination: KTRM Desert Resorts Regl
United States
More flights between these airports :: More routes between these airports
Route:
File this flight plan on PilotEdge
Remarks:
Altitude:
(Current/Filed)
7,500ft
Speed:
(Current/Filed)
150kts
Departed: 19-Oct-20 04:35 PM
Arrived: 19-Oct-20 05:13 PM
Distance/Time
Traveled:
52nm/0:38
Distance/Time
To Go:
Arrived

Flight Plot

Page will automatically refresh every two minutes.

Flight plan parsing failed; only flown route is shown


Map Options




Map Legend


Flown Route
Filed Route
Departure Airport
Arrival Airport
Navaid (VOR, NDB)
Fix

Horizontal Profiles

Position Reports

Time Latitude Longitude Heading Altitude Ground
Speed
19-Oct-20 15:56 0.000408 0.013975 0 5ft 0kts
19-Oct-20 15:57 0.000408 0.013975 0 5ft 0kts
19-Oct-20 15:58 33.039769 -116.911311 274 1396ft 0kts
19-Oct-20 15:59 33.039769 -116.911311 274 1396ft 0kts
19-Oct-20 16:00 33.039769 -116.911311 274 1396ft 0kts
19-Oct-20 16:01 33.039769 -116.911311 274 1396ft 0kts
19-Oct-20 16:02 33.039769 -116.911311 274 1396ft 0kts
19-Oct-20 16:03 33.039769 -116.911311 274 1396ft 0kts
19-Oct-20 16:04 33.039769 -116.911311 274 1396ft 0kts
19-Oct-20 16:05 33.039769 -116.911311 274 1396ft 0kts
19-Oct-20 16:06 33.039769 -116.911311 274 1396ft 0kts
19-Oct-20 16:07 33.039769 -116.911311 274 1396ft 0kts
19-Oct-20 16:08 33.039769 -116.911311 274 1396ft 0kts
19-Oct-20 16:09 33.039769 -116.911311 274 1396ft 0kts
19-Oct-20 16:10 33.039769 -116.911311 274 1396ft 0kts
19-Oct-20 16:11 33.039769 -116.911311 274 1396ft 0kts
19-Oct-20 16:12 33.039769 -116.911311 274 1396ft 0kts
19-Oct-20 16:13 33.039769 -116.911311 274 1396ft 0kts
19-Oct-20 16:14 33.039769 -116.911311 274 1396ft 0kts
19-Oct-20 16:15 33.039769 -116.911311 274 1396ft 0kts
19-Oct-20 16:16 33.039769 -116.911311 274 1396ft 0kts
19-Oct-20 16:17 33.039769 -116.911311 274 1396ft 0kts
19-Oct-20 16:18 33.039770 -116.911311 274 1396ft 0kts
19-Oct-20 16:19 33.039769 -116.911311 274 1396ft 0kts
19-Oct-20 16:20 33.039770 -116.911311 274 1396ft 0kts
19-Oct-20 16:21 33.039770 -116.911312 274 1396ft 0kts
19-Oct-20 16:22 33.039770 -116.911312 274 1396ft 0kts
19-Oct-20 16:23 33.039770 -116.911312 274 1396ft 0kts
19-Oct-20 16:24 33.039770 -116.911312 274 1396ft 0kts
19-Oct-20 16:25 33.039770 -116.911312 274 1396ft 0kts
19-Oct-20 16:26 33.039308 -116.911429 96 1395ft 6kts
19-Oct-20 16:27 33.038758 -116.907741 99 1397ft 12kts
19-Oct-20 16:28 33.038736 -116.906869 166 1398ft 0kts
19-Oct-20 16:29 33.038736 -116.906869 166 1398ft 0kts
19-Oct-20 16:30 33.038735 -116.906869 166 1398ft 0kts
19-Oct-20 16:31 33.038735 -116.906869 166 1398ft 0kts
19-Oct-20 16:32 33.038661 -116.906889 210 1398ft 4kts
19-Oct-20 16:33 33.038070 -116.907645 272 1399ft 12kts
19-Oct-20 16:34 33.042143 -116.932728 277 1817ft 101kts
19-Oct-20 16:35 33.025273 -116.938760 102 2395ft 106kts
19-Oct-20 16:36 33.027130 -116.904434 70 2926ft 107kts
19-Oct-20 16:37 33.036138 -116.870468 73 3386ft 108kts
19-Oct-20 16:38 33.044885 -116.835964 72 3865ft 110kts
19-Oct-20 16:39 33.053718 -116.801463 71 4518ft 109kts
19-Oct-20 16:40 33.063263 -116.766479 71 5143ft 112kts
19-Oct-20 16:41 33.072681 -116.731121 68 5739ft 112kts
19-Oct-20 16:42 33.081376 -116.695096 74 6336ft 113kts
19-Oct-20 16:43 33.090824 -116.658564 73 6877ft 114kts
19-Oct-20 16:44 33.098378 -116.621127 70 7245ft 126kts
19-Oct-20 16:45 33.109879 -116.577228 70 7399ft 127kts
19-Oct-20 16:46 33.121466 -116.532623 70 7144ft 156kts
19-Oct-20 16:47 33.132588 -116.487715 71 7563ft 136kts
19-Oct-20 16:48 33.143656 -116.443159 71 7541ft 147kts
19-Oct-20 16:49 33.155475 -116.396258 71 7523ft 146kts
19-Oct-20 16:50 33.167171 -116.349849 71 7527ft 146kts
19-Oct-20 16:51 33.178991 -116.303442 71 7564ft 146kts
19-Oct-20 16:52 33.192894 -116.258125 64 7609ft 145kts
19-Oct-20 16:53 33.209872 -116.212985 64 7499ft 150kts
19-Oct-20 16:54 33.227061 -116.167543 64 7441ft 149kts
19-Oct-20 16:55 33.244060 -116.122717 64 7438ft 147kts
19-Oct-20 16:56 33.261030 -116.078145 64 7432ft 147kts
19-Oct-20 16:57 33.278079 -116.033589 64 7427ft 147kts
19-Oct-20 16:58 33.295105 -115.989192 64 7427ft 146kts
19-Oct-20 16:59 33.312128 -115.945257 59 7422ft 145kts
19-Oct-20 17:00 33.347859 -115.946781 346 7361ft 143kts
19-Oct-20 17:01 33.387820 -115.961576 325 6773ft 152kts
19-Oct-20 17:02 33.421411 -115.991458 323 5749ft 150kts
19-Oct-20 17:03 33.456202 -116.016814 329 4564ft 142kts
19-Oct-20 17:04 33.490737 -116.040429 328 2892ft 141kts
19-Oct-20 17:05 33.522397 -116.064638 324 1731ft 125kts
19-Oct-20 17:06 33.550065 -116.083692 333 1620ft 106kts
19-Oct-20 17:07 33.576198 -116.097992 331 1626ft 102kts
19-Oct-20 17:09 33.601079 -116.113523 317 1543ft 106kts
19-Oct-20 17:10 33.623337 -116.134949 345 983ft 97kts
19-Oct-20 17:11 33.648891 -116.138936 353 840ft 90kts
19-Oct-20 17:12 33.648939 -116.156106 184 194ft 80kts
19-Oct-20 17:13 33.631675 -116.156422 179 -120ft 28kts
19-Oct-20 17:14 33.629765 -116.157696 331 -122ft 0kts
19-Oct-20 17:15 33.632182 -116.157735 359 -121ft 28kts
19-Oct-20 17:16 33.635944 -116.158090 271 -111ft 3kts

Navigation Log

Ident Type
Flight plan parsing failed, navigation log unavailable